Time;durP1;ratioP1;P1;durP2;ratioP2;P2;SDS_P1;SDS_P2;PMS_P1;PMS_P2;Temp;Humidity;BMP_temperature;BMP_pressure;BME280_temperature;BME280_humidity;BME280_pressure;Samples;Min_cycle;Max_cycle;Signal;HPM_P1;HPM_P2
2023/12/29 00:01:54;;;;;;;0.40;0.40;;;;;;;9.79;74.89;95606.22;4373292;32;20278;-71
2023/12/29 00:04:22;;;;;;;0.50;0.50;;;;;;;9.80;74.90;95610.44;4375008;32;20283;-72
2023/12/29 00:06:49;;;;;;;0.30;0.30;;;;;;;9.68;75.86;95602.87;4403610;32;20206;-72
2023/12/29 00:09:16;;;;;;;0.20;0.20;;;;;;;9.61;75.99;95603.22;4379379;32;20270;-72
2023/12/29 00:11:41;;;;;;;2.00;0.53;;;;;;;9.59;76.29;95600.03;4388118;32;20274;-71
2023/12/29 00:14:08;;;;;;;0.13;0.13;;;;;;;9.51;77.00;95590.06;4388210;32;20214;-72
2023/12/29 00:16:34;;;;;;;0.10;0.10;;;;;;;9.58;76.65;95581.78;4390053;32;20252;-72
2023/12/29 00:19:01;;;;;;;0.57;0.47;;;;;;;9.65;76.25;95577.75;4395140;32;20222;-72
2023/12/29 00:21:28;;;;;;;0.13;0.13;;;;;;;9.58;76.57;95569.31;4396776;32;20243;-71
2023/12/29 00:23:57;;;;;;;0.33;0.33;;;;;;;9.63;76.26;95568.50;4389830;32;20196;-71
2023/12/29 00:26:22;;;;;;;0.37;0.37;;;;;;;9.59;76.30;95567.47;4389181;32;20188;-71
2023/12/29 00:28:49;;;;;;;0.37;0.27;;;;;;;9.46;76.75;95563.63;4400250;32;20222;-72
2023/12/29 00:31:16;;;;;;;0.20;0.20;;;;;;;9.53;76.32;95571.25;4384900;32;20222;-72
2023/12/29 00:33:45;;;;;;;0.40;0.40;;;;;;;9.60;75.94;95567.19;4339313;32;20193;-72
2023/12/29 00:36:26;;;;;;;0.93;0.57;;;;;;;9.39;76.15;95571.09;4382204;32;20192;-71
2023/12/29 00:38:51;;;;;;;0.73;0.73;;;;;;;9.33;76.48;95569.59;4375869;32;20285;-71
2023/12/29 00:41:18;;;;;;;0.20;0.20;;;;;;;9.48;75.04;95566.78;4397620;32;20188;-72
2023/12/29 00:43:45;;;;;;;0.43;0.43;;;;;;;9.44;74.87;95560.47;4383218;32;20197;-72
2023/12/29 00:46:14;;;;;;;0.50;0.50;;;;;;;9.45;74.16;95569.22;4376125;32;20305;-72
2023/12/29 00:48:42;;;;;;;0.83;0.63;;;;;;;9.38;73.81;95561.59;4386407;32;20271;-72
2023/12/29 00:51:09;;;;;;;0.33;0.33;;;;;;;9.44;73.17;95560.47;4401893;32;20184;-71
2023/12/29 00:53:37;;;;;;;0.53;0.53;;;;;;;9.17;73.66;95554.91;4365213;32;20252;-72
2023/12/29 00:56:02;;;;;;;0.60;0.60;;;;;;;9.20;73.25;95549.84;4369109;32;20192;-71
2023/12/29 00:58:29;;;;;;;0.50;0.50;;;;;;;9.12;73.66;95552.31;4384193;32;20203;-71
2023/12/29 01:00:54;;;;;;;0.70;0.70;;;;;;;9.04;73.82;95544.97;4395804;32;20196;-71
2023/12/29 01:03:20;;;;;;;0.30;0.30;;;;;;;9.07;73.49;95549.69;4406989;32;20237;-72
2023/12/29 01:05:47;;;;;;;0.40;0.40;;;;;;;9.12;72.96;95541.72;4405617;32;20172;-72
2023/12/29 01:08:13;;;;;;;0.70;0.70;;;;;;;9.10;73.03;95547.28;4393748;32;20327;-72
2023/12/29 01:10:38;;;;;;;1.13;0.50;;;;;;;8.91;73.78;95536.59;4388652;32;20363;-72
2023/12/29 01:13:05;;;;;;;0.70;0.60;;;;;;;9.01;73.36;95542.87;4382072;32;20383;-71
2023/12/29 01:15:30;;;;;;;0.20;0.20;;;;;;;9.07;72.97;95545.19;4379837;32;20239;-71
2023/12/29 01:17:56;;;;;;;0.43;0.43;;;;;;;9.07;73.01;95541.75;4388717;32;20276;-71
2023/12/29 01:20:21;;;;;;;0.43;0.43;;;;;;;9.00;73.39;95549.22;4368928;32;20254;-71
2023/12/29 01:22:46;;;;;;;0.37;0.37;;;;;;;9.07;73.00;95555.00;4385735;32;20180;-72
2023/12/29 01:25:12;;;;;;;0.40;0.40;;;;;;;9.15;72.60;95567.63;4386096;32;20184;-71
2023/12/29 01:27:38;;;;;;;0.20;0.20;;;;;;;9.21;72.31;95574.44;4391090;32;20205;-71
2023/12/29 01:30:07;;;;;;;0.30;0.30;;;;;;;9.24;71.99;95573.91;4389076;32;20342;-71
2023/12/29 01:32:35;;;;;;;0.20;0.20;;;;;;;9.14;72.48;95571.34;4372918;32;20197;-72
2023/12/29 01:35:02;;;;;;;0.40;0.40;;;;;;;9.03;72.80;95575.94;4377160;32;20294;-72
2023/12/29 01:37:30;;;;;;;0.20;0.20;;;;;;;8.96;73.22;95573.59;4363274;32;20294;-71
2023/12/29 01:39:57;;;;;;;0.30;0.30;;;;;;;9.06;72.77;95570.09;4394839;32;20274;-71
2023/12/29 01:42:23;;;;;;;0.50;0.50;;;;;;;9.04;72.84;95572.22;4372533;32;20307;-71
2023/12/29 01:44:53;;;;;;;0.43;0.43;;;;;;;8.76;74.12;95560.50;4383992;32;20439;-71
2023/12/29 01:47:23;;;;;;;0.27;0.23;;;;;;;8.83;74.01;95557.56;4406374;32;20312;-72
2023/12/29 01:49:50;;;;;;;0.50;0.50;;;;;;;8.74;74.29;95557.34;4405363;32;20287;-72
2023/12/29 01:52:18;;;;;;;0.40;0.40;;;;;;;8.76;74.22;95563.16;4392991;32;20290;-72
2023/12/29 01:54:47;;;;;;;0.50;0.50;;;;;;;8.69;74.51;95559.25;4378960;32;20260;-72
2023/12/29 01:57:16;;;;;;;0.40;0.40;;;;;;;8.82;74.15;95545.41;4389296;32;20359;-71
2023/12/29 01:59:45;;;;;;;0.40;0.40;;;;;;;8.63;74.66;95549.78;4393748;32;20309;-72
2023/12/29 02:02:12;;;;;;;3.83;0.90;;;;;;;8.63;74.80;95539.19;4389179;32;20438;-72
2023/12/29 02:04:42;;;;;;;0.40;0.40;;;;;;;8.67;74.30;95546.31;4358065;32;20294;-72
2023/12/29 02:07:08;;;;;;;0.37;0.37;;;;;;;8.69;74.07;95541.53;4378102;32;20276;-72
2023/12/29 02:09:34;;;;;;;0.70;0.70;;;;;;;8.66;73.97;95538.66;4389274;32;20282;-72
2023/12/29 02:12:05;;;;;;;0.20;0.20;;;;;;;8.67;73.92;95541.03;4391963;32;20276;-71
2023/12/29 02:14:33;;;;;;;0.33;0.33;;;;;;;8.66;73.77;95534.16;4375814;32;20188;-72
2023/12/29 02:17:28;;;;;;;0.73;0.63;;;;;;;8.56;73.80;95534.19;4390772;32;20382;-71
2023/12/29 02:19:53;;;;;;;0.63;0.63;;;;;;;8.67;73.53;95535.72;4391094;32;20350;-71
2023/12/29 02:22:20;;;;;;;0.60;0.60;;;;;;;8.62;73.42;95527.81;4387404;32;20303;-72
2023/12/29 02:24:48;;;;;;;0.40;0.40;;;;;;;8.66;73.08;95518.28;4380493;32;20262;-72
2023/12/29 02:27:41;;;;;;;0.53;0.43;;;;;;;8.55;73.58;95516.75;4397160;32;20277;-71
2023/12/29 02:30:23;;;;;;;0.30;0.30;;;;;;;8.50;73.35;95522.91;4411226;32;20287;-71
2023/12/29 02:32:55;;;;;;;0.30;0.30;;;;;;;8.62;72.44;95533.13;4380617;32;20290;-72
2023/12/29 02:35:44;;;;;;;0.67;0.67;;;;;;;8.64;72.67;95523.06;4358518;32;20272;-72
2023/12/29 02:38:11;;;;;;;0.87;0.80;;;;;;;8.58;72.47;95529.44;4405542;32;20279;-72
2023/12/29 02:40:37;;;;;;;0.30;0.30;;;;;;;8.60;72.02;95522.81;4333757;32;20342;-71
2023/12/29 02:43:04;;;;;;;1.30;0.67;;;;;;;8.62;71.98;95527.81;4377760;32;20299;-72
2023/12/29 02:45:30;;;;;;;0.57;0.57;;;;;;;8.67;71.85;95527.00;4384703;32;20241;-71
2023/12/29 02:47:56;;;;;;;0.40;0.40;;;;;;;8.60;71.50;95524.66;4354937;32;20279;-71
2023/12/29 02:50:24;;;;;;;0.60;0.60;;;;;;;8.71;71.16;95510.31;4378418;32;20275;-71
2023/12/29 02:52:50;;;;;;;0.73;0.47;;;;;;;8.56;71.67;95507.75;4405315;32;20188;-72
2023/12/29 02:55:17;;;;;;;0.60;0.60;;;;;;;8.61;71.13;95510.38;4380940;32;20276;-71
2023/12/29 02:57:43;;;;;;;0.40;0.40;;;;;;;8.63;71.02;95507.47;4370701;32;20309;-71
2023/12/29 03:00:09;;;;;;;0.23;0.23;;;;;;;8.64;70.77;95509.81;4376509;32;20286;-72
2023/12/29 03:02:35;;;;;;;1.87;0.63;;;;;;;8.63;70.60;95494.25;4368344;32;20275;-71
2023/12/29 03:05:01;;;;;;;0.30;0.30;;;;;;;8.64;70.54;95493.97;4382387;32;20191;-72
2023/12/29 03:07:26;;;;;;;0.33;0.33;;;;;;;8.64;70.26;95490.53;4375203;32;20313;-71
2023/12/29 03:09:52;;;;;;;0.40;0.40;;;;;;;8.58;70.43;95479.19;4396717;32;20195;-71
2023/12/29 03:12:19;;;;;;;0.90;0.90;;;;;;;8.63;69.92;95476.53;4398248;32;20259;-72
2023/12/29 03:14:47;;;;;;;0.20;0.20;;;;;;;8.73;69.73;95468.47;4386962;32;20377;-72
2023/12/29 03:17:13;;;;;;;0.67;0.67;;;;;;;8.75;69.07;95470.84;4355128;32;20359;-72
2023/12/29 03:19:39;;;;;;;0.50;0.50;;;;;;;8.64;69.67;95478.09;4380112;32;20294;-72
2023/12/29 03:22:06;;;;;;;0.30;0.30;;;;;;;8.57;70.28;95472.31;4396345;32;20394;-72
2023/12/29 03:24:31;;;;;;;0.40;0.37;;;;;;;8.58;70.58;95476.56;4397058;32;20188;-72
2023/12/29 03:26:58;;;;;;;0.30;0.30;;;;;;;8.66;69.73;95475.19;4394909;32;20290;-72
2023/12/29 03:29:25;;;;;;;0.20;0.20;;;;;;;8.61;69.77;95470.72;4376850;32;20184;-71
2023/12/29 03:31:51;;;;;;;0.40;0.40;;;;;;;8.66;69.55;95475.97;4393359;32;20276;-62
2023/12/29 03:34:17;;;;;;;0.30;0.30;;;;;;;8.71;68.78;95478.59;4394962;32;20281;-72
2023/12/29 03:36:44;;;;;;;0.33;0.33;;;;;;;8.65;68.86;95486.81;4395457;32;20228;-72
2023/12/29 03:39:09;;;;;;;0.37;0.37;;;;;;;8.70;69.10;95481.50;4402532;32;20278;-72
2023/12/29 03:41:36;;;;;;;0.50;0.50;;;;;;;8.56;69.51;95481.31;4394208;32;20343;-72
2023/12/29 03:44:03;;;;;;;0.23;0.23;;;;;;;8.64;68.97;95480.75;4372474;32;20184;-72
2023/12/29 03:46:31;;;;;;;0.53;0.53;;;;;;;8.62;69.06;95480.22;4379848;32;20336;-72
2023/12/29 03:48:58;;;;;;;0.70;0.70;;;;;;;8.68;68.36;95467.75;4377132;32;20275;-72
2023/12/29 03:51:24;;;;;;;0.17;0.17;;;;;;;8.57;68.78;95469.69;4392977;32;20295;-69
2023/12/29 03:53:50;;;;;;;0.57;0.37;;;;;;;8.53;69.16;95471.28;4382118;32;20320;-72
2023/12/29 03:56:18;;;;;;;0.37;0.20;;;;;;;8.49;69.79;95481.66;4394783;32;20172;-72
2023/12/29 03:58:45;;;;;;;0.40;0.30;;;;;;;8.53;69.06;95479.22;4390293;32;20218;-72
2023/12/29 04:01:12;;;;;;;0.63;0.63;;;;;;;8.51;69.23;95470.81;4380053;32;20339;-72
2023/12/29 04:03:38;;;;;;;0.50;0.50;;;;;;;8.52;68.77;95464.47;4396062;32;20289;-72
2023/12/29 04:06:07;;;;;;;0.53;0.53;;;;;;;8.53;68.74;95464.16;4376540;32;20287;-72
2023/12/29 04:08:35;;;;;;;0.50;0.50;;;;;;;8.46;69.45;95460.25;4370398;32;20273;-72
2023/12/29 04:11:00;;;;;;;0.60;0.60;;;;;;;8.59;68.16;95456.97;4372043;32;20292;-72
2023/12/29 04:13:27;;;;;;;0.57;0.33;;;;;;;8.57;66.52;95467.03;4378894;32;20299;-71
2023/12/29 04:15:53;;;;;;;0.83;0.33;;;;;;;8.67;66.37;95461.69;4393254;32;20304;-71
2023/12/29 04:18:24;;;;;;;0.20;0.20;;;;;;;8.72;65.54;95459.00;4406905;32;20299;-71
2023/12/29 04:20:50;;;;;;;0.10;0.10;;;;;;;8.78;64.91;95449.94;4392329;32;20199;-72
2023/12/29 04:23:17;;;;;;;0.20;0.20;;;;;;;8.87;64.67;95452.78;4397441;32;20316;-72
2023/12/29 04:25:43;;;;;;;0.40;0.40;;;;;;;8.91;64.46;95451.94;4390715;32;20264;-72
2023/12/29 04:28:10;;;;;;;0.37;0.37;;;;;;;8.91;64.99;95457.25;4380619;32;20332;-72
2023/12/29 04:30:38;;;;;;;0.43;0.43;;;;;;;8.95;65.00;95463.53;4379258;32;20208;-72
2023/12/29 04:33:04;;;;;;;0.40;0.40;;;;;;;8.92;63.49;95448.25;4404070;32;20298;-72
2023/12/29 04:35:30;;;;;;;0.43;0.43;;;;;;;9.03;63.82;95451.56;4323617;32;20281;-71
2023/12/29 04:37:58;;;;;;;0.33;0.33;;;;;;;9.10;63.59;95451.25;4386409;32;20184;-72
2023/12/29 04:40:25;;;;;;;1.03;0.60;;;;;;;9.06;63.55;95452.88;4371520;32;20207;-72
2023/12/29 04:42:53;;;;;;;0.57;0.57;;;;;;;9.13;63.08;95455.97;4389233;32;20268;-71
2023/12/29 04:45:19;;;;;;;0.40;0.40;;;;;;;9.16;63.15;95447.44;4388792;32;20283;-72
2023/12/29 04:47:47;;;;;;;0.33;0.33;;;;;;;9.23;62.97;95445.28;4382256;32;20282;-72
2023/12/29 04:50:13;;;;;;;0.93;0.70;;;;;;;9.25;63.71;95440.47;4363065;32;20316;-72
2023/12/29 04:52:39;;;;;;;0.30;0.30;;;;;;;9.24;62.98;95444.19;4367609;32;20327;-71
2023/12/29 04:55:04;;;;;;;0.30;0.30;;;;;;;9.26;62.89;95442.06;4369789;32;20369;-71
2023/12/29 04:57:32;;;;;;;0.67;0.60;;;;;;;9.40;62.46;95444.81;4390491;32;20215;-71
2023/12/29 04:59:57;;;;;;;0.30;0.30;;;;;;;9.35;62.18;95440.38;4393096;32;20189;-71
2023/12/29 05:02:25;;;;;;;0.87;0.87;;;;;;;9.41;63.31;95444.53;4389015;32;20275;-71
2023/12/29 05:04:51;;;;;;;0.43;0.43;;;;;;;9.48;62.81;95444.19;4393372;32;20210;-62
2023/12/29 05:07:16;;;;;;;0.57;0.57;;;;;;;9.44;62.91;95449.28;4361136;32;20296;-72
2023/12/29 05:09:43;;;;;;;1.13;0.57;;;;;;;9.55;62.68;95452.59;4385358;32;20254;-71
2023/12/29 05:12:09;;;;;;;0.40;0.40;;;;;;;9.60;63.32;95449.88;4384856;32;20184;-71
2023/12/29 05:14:37;;;;;;;0.30;0.30;;;;;;;9.67;62.44;95446.88;4396737;32;20208;-71
2023/12/29 05:17:04;;;;;;;0.77;0.67;;;;;;;9.53;62.94;95446.78;4398176;32;20205;-71
2023/12/29 05:19:31;;;;;;;0.20;0.20;;;;;;;9.53;63.92;95444.94;4390748;32;20302;-72
2023/12/29 05:21:57;;;;;;;0.40;0.40;;;;;;;9.63;63.75;95436.84;4358862;32;20277;-71
2023/12/29 05:24:23;;;;;;;4.60;0.90;;;;;;;9.68;63.09;95446.59;4389678;32;20212;-71
2023/12/29 05:26:49;;;;;;;0.60;0.60;;;;;;;9.75;63.55;95438.31;4386763;32;20196;-71
2023/12/29 05:29:15;;;;;;;0.40;0.40;;;;;;;9.78;63.33;95443.03;4411155;32;20327;-71
2023/12/29 05:31:41;;;;;;;0.30;0.30;;;;;;;9.76;63.87;95439.91;4396013;32;20338;-71
2023/12/29 05:34:07;;;;;;;0.40;0.40;;;;;;;9.79;63.66;95450.69;4397559;32;20321;-71
2023/12/29 05:36:39;;;;;;;0.73;0.37;;;;;;;9.75;64.00;95449.72;4401881;32;20188;-71
2023/12/29 05:39:06;;;;;;;0.23;0.23;;;;;;;9.76;63.89;95451.28;4377427;32;20195;-71
2023/12/29 05:41:33;;;;;;;2.30;0.80;;;;;;;9.81;63.41;95447.75;4383269;32;20272;-71
2023/12/29 05:44:00;;;;;;;0.40;0.40;;;;;;;9.92;63.18;95459.81;4395495;32;20271;-71
2023/12/29 05:46:28;;;;;;;0.50;0.50;;;;;;;9.81;63.42;95461.00;4398881;32;20239;-71
2023/12/29 05:48:54;;;;;;;0.50;0.50;;;;;;;9.79;63.54;95458.63;4383448;32;20366;-71
2023/12/29 05:51:21;;;;;;;0.40;0.40;;;;;;;9.78;63.70;95462.34;4380017;32;20192;-71
2023/12/29 05:53:48;;;;;;;0.97;0.70;;;;;;;9.82;63.35;95465.22;4390721;32;20238;-71
2023/12/29 05:56:15;;;;;;;0.37;0.37;;;;;;;9.80;63.40;95464.72;4387873;32;20185;-71
2023/12/29 05:58:42;;;;;;;0.93;0.67;;;;;;;9.76;63.66;95463.75;4390077;32;21581;-71
2023/12/29 06:01:10;;;;;;;0.43;0.43;;;;;;;9.73;64.13;95466.94;4393764;32;20244;-71
2023/12/29 06:03:35;;;;;;;0.50;0.50;;;;;;;9.72;63.92;95465.37;4368945;32;20219;-72
2023/12/29 06:06:03;;;;;;;0.77;0.77;;;;;;;9.79;63.55;95465.78;4392956;32;20283;-71
2023/12/29 06:08:29;;;;;;;0.20;0.20;;;;;;;9.82;63.22;95460.72;4361065;32;20230;-71
2023/12/29 06:10:55;;;;;;;0.77;0.77;;;;;;;9.83;63.44;95461.50;4383275;32;20265;-71
2023/12/29 06:13:23;;;;;;;0.23;0.23;;;;;;;9.81;63.37;95474.25;4398338;32;20220;-71
2023/12/29 06:15:50;;;;;;;0.57;0.57;;;;;;;9.81;63.39;95471.59;4373717;32;20223;-71
2023/12/29 06:18:16;;;;;;;0.27;0.27;;;;;;;9.83;63.39;95477.41;4380943;32;20349;-71
2023/12/29 06:20:42;;;;;;;0.43;0.43;;;;;;;9.82;63.33;95470.53;4376084;32;20286;-71
2023/12/29 06:23:08;;;;;;;0.30;0.30;;;;;;;9.93;62.73;95469.34;4388702;32;20199;-72
2023/12/29 06:25:37;;;;;;;0.40;0.40;;;;;;;9.96;63.08;95472.22;4395760;32;20229;-71
2023/12/29 06:28:06;;;;;;;0.40;0.40;;;;;;;9.90;62.58;95477.84;4388804;32;20259;-71
2023/12/29 06:30:33;;;;;;;0.20;0.20;;;;;;;10.02;62.18;95486.16;4373489;32;20180;-71
2023/12/29 06:32:59;;;;;;;0.20;0.20;;;;;;;9.91;62.38;95490.81;4383882;32;20252;-71
2023/12/29 06:35:26;;;;;;;0.37;0.37;;;;;;;9.82;62.92;95486.44;4371670;32;20181;-71
2023/12/29 06:37:54;;;;;;;0.40;0.40;;;;;;;9.93;62.96;95482.59;4381760;32;20199;-71
2023/12/29 06:40:23;;;;;;;0.53;0.53;;;;;;;9.74;62.87;95476.47;4390035;32;20275;-71
2023/12/29 06:42:50;;;;;;;0.67;0.67;;;;;;;9.67;63.10;95474.16;4375874;32;20240;-72
2023/12/29 06:45:17;;;;;;;0.13;0.13;;;;;;;9.77;62.73;95478.56;4398700;32;20183;-71
2023/12/29 06:47:44;;;;;;;0.80;0.80;;;;;;;9.71;62.94;95475.19;4376398;32;20324;-72
2023/12/29 06:50:12;;;;;;;1.43;0.63;;;;;;;9.58;63.38;95476.63;4357923;32;20196;-72
2023/12/29 06:52:39;;;;;;;0.40;0.40;;;;;;;9.62;63.61;95475.00;4388637;32;20184;-71
2023/12/29 06:55:07;;;;;;;0.50;0.50;;;;;;;9.58;63.68;95471.34;4367384;32;20177;-71
2023/12/29 06:57:35;;;;;;;0.50;0.50;;;;;;;9.54;63.47;95490.75;4377275;32;20183;-71
2023/12/29 07:00:03;;;;;;;0.57;0.57;;;;;;;9.59;63.93;95483.50;4383980;32;20200;-71
2023/12/29 07:02:30;;;;;;;0.40;0.40;;;;;;;9.67;63.48;95481.31;4396625;32;20187;-71
2023/12/29 07:04:59;;;;;;;0.20;0.20;;;;;;;9.71;63.44;95475.19;4403581;32;20263;-70
2023/12/29 07:07:26;;;;;;;0.30;0.30;;;;;;;9.70;64.05;95467.50;4378392;32;20264;-67
2023/12/29 07:09:51;;;;;;;0.30;0.30;;;;;;;9.85;63.59;95472.63;4377035;32;20187;-60
2023/12/29 07:12:16;;;;;;;0.60;0.60;;;;;;;9.83;64.98;95478.19;4388577;32;20290;-71
2023/12/29 07:14:46;;;;;;;0.40;0.40;;;;;;;9.86;65.49;95476.84;4382182;32;20218;-71
2023/12/29 07:17:11;;;;;;;0.40;0.40;;;;;;;9.70;66.42;95472.81;4357729;32;20303;-71
2023/12/29 07:19:40;;;;;;;0.80;0.63;;;;;;;9.74;66.59;95471.19;4380579;32;20288;-71
2023/12/29 07:22:10;;;;;;;0.67;0.63;;;;;;;9.71;67.09;95477.03;4368651;32;20186;-71
2023/12/29 07:24:35;;;;;;;0.10;0.10;;;;;;;9.75;67.06;95473.53;4385460;32;20276;-71
2023/12/29 07:27:03;;;;;;;0.17;0.17;;;;;;;9.79;67.27;95473.75;4383116;32;20279;-71
2023/12/29 07:29:30;;;;;;;6.03;0.63;;;;;;;9.81;67.42;95480.34;4374459;32;20184;-71
2023/12/29 07:32:00;;;;;;;3.63;0.60;;;;;;;9.72;68.40;95475.97;4379844;32;20291;-70
2023/12/29 07:34:30;;;;;;;1.37;0.50;;;;;;;9.64;69.26;95478.16;4393177;32;20279;-71
2023/12/29 07:36:55;;;;;;;1.57;0.53;;;;;;;9.72;69.44;95483.91;4403862;32;20268;-71
2023/12/29 07:39:23;;;;;;;0.67;0.67;;;;;;;9.73;69.72;95481.00;4384572;32;20287;-71
2023/12/29 07:41:53;;;;;;;0.23;0.23;;;;;;;9.72;70.11;95489.22;4404119;32;20325;-71
2023/12/29 07:44:20;;;;;;;0.33;0.33;;;;;;;9.70;70.97;95488.69;4396127;32;20290;-71
2023/12/29 07:46:46;;;;;;;0.30;0.30;;;;;;;9.72;71.56;95491.88;4399355;32;20302;-71
2023/12/29 07:49:13;;;;;;;0.20;0.20;;;;;;;9.75;72.28;95488.66;4381910;32;20268;-71
2023/12/29 07:51:40;;;;;;;0.10;0.10;;;;;;;9.72;73.10;95497.94;4372970;32;20254;-71
2023/12/29 07:54:07;;;;;;;0.53;0.53;;;;;;;9.76;73.36;95498.97;4379914;32;20341;-71
2023/12/29 07:56:38;;;;;;;0.30;0.30;;;;;;;9.81;73.21;95500.75;4396583;32;20276;-71
2023/12/29 07:59:04;;;;;;;1.50;0.70;;;;;;;9.84;73.28;95500.97;4400228;32;20291;-71
2023/12/29 08:01:31;;;;;;;0.40;0.40;;;;;;;9.78;73.66;95504.75;4386337;32;20329;-71
2023/12/29 08:03:58;;;;;;;0.23;0.23;;;;;;;9.73;74.46;95506.69;4388350;32;20295;-71
2023/12/29 08:06:24;;;;;;;0.37;0.37;;;;;;;9.74;74.58;95516.22;4396272;32;20192;-71
2023/12/29 08:08:51;;;;;;;0.40;0.40;;;;;;;9.75;74.58;95515.16;4392152;32;20272;-71
2023/12/29 08:11:17;;;;;;;0.30;0.30;;;;;;;9.84;74.58;95516.88;4402460;32;20188;-71
2023/12/29 08:13:49;;;;;;;0.30;0.30;;;;;;;9.79;75.19;95514.28;4386263;32;20268;-71
2023/12/29 08:16:20;;;;;;;0.10;0.10;;;;;;;9.83;75.03;95517.16;4390793;32;20302;-71
2023/12/29 08:18:50;;;;;;;0.20;0.20;;;;;;;9.85;75.12;95523.75;4388366;32;20267;-71
2023/12/29 08:21:21;;;;;;;0.30;0.30;;;;;;;9.81;75.44;95516.63;4385121;32;20299;-71
2023/12/29 08:23:48;;;;;;;0.07;0.07;;;;;;;9.93;74.92;95517.03;4392686;32;20280;-71
2023/12/29 08:26:16;;;;;;;0.30;0.30;;;;;;;9.86;75.35;95514.72;4370251;32;20276;-71
2023/12/29 08:28:42;;;;;;;0.37;0.37;;;;;;;9.86;75.52;95511.28;4397488;32;20343;-71
2023/12/29 08:31:10;;;;;;;0.30;0.30;;;;;;;9.96;75.18;95516.47;4382415;32;20275;-71
2023/12/29 08:33:36;;;;;;;0.30;0.30;;;;;;;9.99;74.72;95526.47;4397021;32;20191;-71
2023/12/29 08:36:03;;;;;;;0.17;0.17;;;;;;;9.92;74.92;95518.91;4400471;32;20340;-71
2023/12/29 08:38:34;;;;;;;1.20;0.57;;;;;;;9.95;74.79;95523.62;4394190;32;20279;-71
2023/12/29 08:41:01;;;;;;;0.20;0.20;;;;;;;9.93;74.92;95522.34;4360149;32;20277;-71
2023/12/29 08:43:27;;;;;;;0.20;0.20;;;;;;;9.98;74.81;95527.56;4396859;32;20283;-71
2023/12/29 08:45:54;;;;;;;3.10;0.53;;;;;;;10.02;74.66;95528.56;4389074;32;20307;-71
2023/12/29 08:48:21;;;;;;;0.20;0.20;;;;;;;10.02;74.79;95517.97;4349029;32;20188;-71
2023/12/29 08:50:48;;;;;;;0.20;0.20;;;;;;;10.04;74.39;95520.34;4391226;32;20268;-71
2023/12/29 08:53:19;;;;;;;0.30;0.30;;;;;;;10.09;73.97;95523.72;4393122;32;20272;-71
2023/12/29 08:55:46;;;;;;;0.50;0.50;;;;;;;10.09;73.87;95512.31;4348805;32;20304;-71
2023/12/29 08:58:12;;;;;;;0.53;0.53;;;;;;;10.03;74.14;95518.75;4393244;32;20304;-71
2023/12/29 09:00:38;;;;;;;0.60;0.60;;;;;;;10.04;74.18;95512.37;4389019;32;20298;-71
2023/12/29 09:03:04;;;;;;;1.60;0.40;;;;;;;10.04;74.31;95512.37;4377944;32;20271;-71
2023/12/29 09:05:30;;;;;;;0.20;0.20;;;;;;;10.10;74.37;95509.41;4401009;32;20202;-71
2023/12/29 09:07:56;;;;;;;0.57;0.57;;;;;;;10.05;74.70;95520.06;4402481;32;20280;-71
2023/12/29 09:10:22;;;;;;;0.33;0.33;;;;;;;9.95;75.36;95517.56;4389803;32;20284;-66
2023/12/29 09:12:49;;;;;;;0.83;0.40;;;;;;;9.96;75.78;95513.81;4397943;32;20340;-71
2023/12/29 09:15:16;;;;;;;0.23;0.23;;;;;;;10.08;74.92;95516.84;4388964;32;20295;-71
2023/12/29 09:17:44;;;;;;;0.47;0.47;;;;;;;10.10;74.97;95519.22;4391270;32;20370;-71
2023/12/29 09:20:16;;;;;;;0.17;0.17;;;;;;;10.14;74.88;95521.00;4372607;32;20318;-71
2023/12/29 09:22:44;;;;;;;0.27;0.27;;;;;;;10.14;74.99;95523.66;4389786;32;20304;-71
2023/12/29 09:25:09;;;;;;;0.50;0.50;;;;;;;10.18;74.92;95523.88;4390677;32;20202;-71
2023/12/29 09:27:36;;;;;;;0.50;0.50;;;;;;;10.21;74.58;95526.75;4400805;32;20193;-72
2023/12/29 09:30:04;;;;;;;0.40;0.20;;;;;;;10.26;74.57;95528.56;4373892;32;20188;-71
2023/12/29 09:32:32;;;;;;;0.20;0.20;;;;;;;10.20;74.70;95527.84;4352614;32;20283;-71
2023/12/29 09:34:58;;;;;;;0.20;0.20;;;;;;;10.27;74.70;95525.63;4396715;32;20280;-71
2023/12/29 09:37:26;;;;;;;0.30;0.30;;;;;;;10.20;74.80;95519.87;4392992;32;20207;-71
2023/12/29 09:39:51;;;;;;;0.87;0.87;;;;;;;10.21;74.81;95521.47;4398522;32;20184;-71
2023/12/29 09:42:22;;;;;;;0.33;0.33;;;;;;;10.34;74.12;95519.97;4396989;32;20194;-71
2023/12/29 09:44:51;;;;;;;0.57;0.57;;;;;;;10.29;74.40;95515.53;4344127;32;20212;-71
2023/12/29 09:47:30;;;;;;;2.10;0.50;;;;;;;10.31;74.22;95509.94;4363721;32;20224;-71
2023/12/29 09:49:57;;;;;;;0.37;0.37;;;;;;;10.36;73.99;95511.75;4356430;32;20251;-71
2023/12/29 09:52:22;;;;;;;0.20;0.20;;;;;;;10.36;73.98;95514.41;4369447;32;20192;-71
2023/12/29 09:54:53;;;;;;;1.27;0.63;;;;;;;10.37;74.09;95527.37;4377973;32;20240;-71
2023/12/29 09:57:20;;;;;;;0.40;0.37;;;;;;;10.42;73.73;95527.28;4394435;32;20203;-71
2023/12/29 09:59:51;;;;;;;1.40;0.53;;;;;;;10.40;73.89;95520.69;4390244;32;20198;-71
2023/12/29 10:02:20;;;;;;;0.20;0.20;;;;;;;10.42;73.92;95516.66;4373001;32;20215;-71
2023/12/29 10:04:45;;;;;;;0.30;0.30;;;;;;;10.41;73.84;95515.09;4369652;32;20189;-72
2023/12/29 10:07:23;;;;;;;0.30;0.30;;;;;;;10.41;73.92;95514.31;4380780;32;20309;-71
2023/12/29 10:09:58;;;;;;;0.33;0.33;;;;;;;10.37;74.08;95503.50;4393540;32;20215;-72
2023/12/29 10:12:25;;;;;;;0.57;0.57;;;;;;;10.38;74.19;95505.09;4385822;32;20280;-71
2023/12/29 10:15:15;;;;;;;1.90;1.80;;;;;;;10.38;74.27;95496.34;4368939;32;20293;-72
2023/12/29 10:18:11;;;;;;;1.20;0.73;;;;;;;10.37;74.43;95494.75;4389376;32;20188;-71
2023/12/29 10:20:45;;;;;;;0.20;0.20;;;;;;;10.44;74.36;95495.16;4394248;32;20220;-71
2023/12/29 10:23:16;;;;;;;0.37;0.37;;;;;;;10.31;75.24;95488.72;4379803;32;20211;-72
2023/12/29 10:25:43;;;;;;;0.30;0.30;;;;;;;10.30;75.63;95492.47;4330938;32;20275;-72
2023/12/29 10:28:13;;;;;;;0.10;0.10;;;;;;;10.26;76.95;95481.63;4337521;32;20226;-71
2023/12/29 10:30:40;;;;;;;0.30;0.30;;;;;;;10.34;77.16;95482.84;4361556;32;20256;-71
2023/12/29 10:33:06;;;;;;;0.03;0.03;;;;;;;10.33;77.92;95470.69;4398560;32;20198;-71
2023/12/29 10:35:37;;;;;;;0.30;0.30;;;;;;;10.33;78.62;95466.16;4400091;32;20296;-71
2023/12/29 10:38:13;;;;;;;0.00;0.00;;;;;;;10.37;78.82;95465.59;4381314;32;20177;-71
2023/12/29 10:40:42;;;;;;;0.40;0.40;;;;;;;10.37;79.34;95468.25;4387555;32;20191;-71
2023/12/29 10:43:09;;;;;;;0.10;0.10;;;;;;;10.47;79.18;95465.41;4388114;32;20279;-71
2023/12/29 10:45:36;;;;;;;0.03;0.03;;;;;;;10.57;78.95;95457.31;4394081;32;20216;-71
2023/12/29 10:48:05;;;;;;;0.03;0.03;;;;;;;10.53;79.24;95458.97;4361135;32;20259;-71
2023/12/29 10:50:46;;;;;;;0.20;0.20;;;;;;;10.58;79.15;95457.03;4387957;32;20206;-71
2023/12/29 10:53:17;;;;;;;0.00;0.00;;;;;;;10.61;79.21;95460.94;4391515;32;20286;-71
2023/12/29 10:55:43;;;;;;;0.10;0.10;;;;;;;10.59;79.30;95458.59;4378398;32;20279;-71
2023/12/29 10:58:10;;;;;;;0.10;0.10;;;;;;;10.61;79.21;95453.00;4352584;32;20187;-71
2023/12/29 11:00:36;;;;;;;0.30;0.30;;;;;;;10.61;79.17;95445.81;4390875;32;20206;-72
2023/12/29 11:03:04;;;;;;;0.00;0.00;;;;;;;10.56;79.36;95445.91;4402345;32;20184;-71
2023/12/29 11:05:33;;;;;;;0.17;0.17;;;;;;;10.62;79.01;95441.31;4385782;32;20207;-71
2023/12/29 11:07:59;;;;;;;0.10;0.10;;;;;;;10.68;78.65;95437.50;4400870;32;20240;-71
2023/12/29 11:10:26;;;;;;;0.20;0.20;;;;;;;10.68;78.42;95440.16;4395717;32;20180;-71
2023/12/29 11:12:56;;;;;;;0.10;0.10;;;;;;;10.67;78.42;95433.28;4389618;32;20192;-68
2023/12/29 11:15:25;;;;;;;0.30;0.30;;;;;;;10.73;78.20;95442.72;4397095;32;20177;-65
2023/12/29 11:17:52;;;;;;;0.33;0.17;;;;;;;10.72;78.15;95435.84;4391250;32;20258;-71
2023/12/29 11:20:21;;;;;;;0.00;0.00;;;;;;;10.65;78.67;95432.78;4388182;32;20214;-72
2023/12/29 11:22:48;;;;;;;0.33;0.33;;;;;;;10.78;77.92;95429.38;4371662;32;20208;-71
2023/12/29 11:25:15;;;;;;;0.20;0.20;;;;;;;10.78;77.96;95440.00;4352861;32;20286;-72
2023/12/29 11:27:42;;;;;;;0.30;0.30;;;;;;;10.73;78.17;95426.81;4382545;32;20210;-72
2023/12/29 11:30:15;;;;;;;0.30;0.30;;;;;;;10.80;77.90;95421.13;4391696;32;20176;-71
2023/12/29 11:32:57;;;;;;;0.17;0.17;;;;;;;10.73;78.41;95428.66;4355340;32;20192;-71
2023/12/29 11:35:56;;;;;;;0.00;0.00;;;;;;;10.86;77.71;95425.25;4411349;32;20235;-71
2023/12/29 11:38:43;;;;;;;0.00;0.00;;;;;;;10.79;78.05;95415.03;4336294;32;20192;-64
2023/12/29 11:41:45;;;;;;;0.20;0.20;;;;;;;10.85;77.82;95418.38;4377817;32;20210;-71
2023/12/29 11:44:10;;;;;;;0.40;0.40;;;;;;;10.82;77.67;95425.03;4377349;32;20204;-71